Fort Saint John, Canada
Current Conditions -  °F | °C
As of 12:00 PM on Friday 21 Nov 2014 (Local Time) from CYXJ Reporting Station
Light Snow Light Snow  
Wind Chill: -8°   Ceiling: 1200
Heat Index: -3°   Visibility: 1.7mi
Dew Point: -4°   Wind: 9mph
Humidity: 93%   Direction: 340°NNW
Pressure: 29.48"   Gusts: NA
Location:  56.25°N, 120.85°W
Report Text: CYXJ 211900Z 34008KT 1 3/4SM -SN OVC012 M03/M04 A2948 RMK SN2SC6 SLP018
Loading
Personal Weather Stations






























Interactive Weather Map New forecast layout! Learn more

10-Day Weather Forecast

Advertisements
Track Severe Weather on mobile